Relevés horaires Bruxelles-National (Belgique)


Relevés horaires à Bruxelles-National - Samedi 14 Mai 2022
Heure UTC1 Température [°C] Vent [km/h] Hum. [%] Pres.4 [hPa] Visi. [Km] Nébu. [octa] Préc.5 [mm] Cond.
2m. Res. Ros. Dir.2 Vit. Moy. Raf.3
23:00 14.2 14.2 8.8 ENE 1.9 3.7 5.6 70 1020.7(-0.1/3h) 25 6/8 -- --
22:00 14.8 14.8 9.0 NE 3.7 5.6 7.4 68 1020.9(0.5/3h) 25 5/8 -- --
21:00 15.4 15.4 8.5 NNE 3.7 5.6 7.4 63 1021(0.3/3h) 30 2/8 -- --
20:00 17.3 17.3 8.5 N 3.7 5.6 7.4 56 1020.6(-0.2/3h) 30 2/8 -- --
19:00 19.8 19.8 8.0 NE 1.9 3.7 3.7 46 1020.4(-0.6/3h) 30 3/8 -- --
18:00 21.3 21.3 6.9 NNE 1.9 5.6 11.1 39 1020.6(-0.7/3h) 35 1/8 0/12h
--
17:00 21.5 21.5 6.6 NNO 1.9 5.6 7.4 38 1020.7(-1.0/3h) 40 1/8 -- --
16:00 21.7 21.7 7.0 N 1.9 5.6 9.3 39 1020.9(-1.2/3h) 40 1/8 -- --
15:00 21.3 21.3 6.6 O 1.9 5.6 11.1 38 1021.3(-1.1/3h) 40 1/8 -- --
14:00 21.2 21.2 7.4 NNO 3.7 5.6 11.1 41 1021.7(-0.8/3h) 40 1/8 -- --
13:00 20.9 20.9 7.5 NNO 1.9 5.6 11.1 42 1022.1(-0.5/3h) 40 3/8 -- --
12:00 19.9 19.9 6.8 O 5.6 7.4 11.1 43 1022.5(-0.1/3h) 40 3/8 0/6h
--
11:00 19.0 19.0 7.5 NNO 3.7 3.7 11.1 47 1022.6(-0.1/3h) 40 3/8 -- --
10:00 17.8 17.8 8.5 NNO 3.7 3.7 5.6 54 1022.7(0.2/3h) 40 3/8 -- --
09:00 16.3 16.3 8.8 O 1.9 5.6 7.4 61 1022.7(0.5/3h) 40 2/8 -- --
08:00 14.6 14.6 8.8 OSO 1.9 3.7 5.6 68 1022.8(0.9/3h) 40 2/8 -- --
07:00 12.9 12.9 8.2 OSO 3.7 5.6 7.4 73 1022.6(0.8/3h) 40 1/8 -- --
06:00 11.3 11.3 7.2 OSO 3.7 7.4 9.3 76 1022.4(0.5/3h) 40 0/8 0/12h
--
05:00 9.0 9.0 6.6 SO 3.7 5.6 5.6 85 1022(0.1/3h) 40 0/8 -- --
04:00 8.6 8 6.0 OSO 5.6 5.6 7.4 84 1021.9(0.1/3h) 40 0/8 -- --
03:00 8.7 8.7 5.8 OSO 3.7 7.4 9.3 82 1022(-0.2/3h) 40 0/8 -- --
02:00 9.6 9.6 5.6 OSO 3.7 5.6 9.3 76 1021.9(-0.3/3h) 40 0/8 -- --
01:00 10.3 9.9 5.4 SO 5.6 7.4 9.3 72 1021.8(-0.4/3h) 40 0/8 -- --
00:00 11.0 10.3 5.0 OSO 7.4 13.0 14.8 66 1022.1(0.0/3h) 40 1/8 0/6h
0/24h
--

1 Coordinated Universal Time. Actuellement il est 05:00 locale et 03:00 UTC.

2 Le vent souffle depuis la direction indiquée vers la direction oposée.

3 Les rafales max. sont disponible 40 min après l'heure du relevé.

4 Pour les stations d'altitude (plus de 600m) le géopotentiel du niveau le plus proche de la pression obligatoire est indiqué.

5 Les stations disposant d'un diffuseur peuvent indiquer "trace". Cela signifie que des précipitations ont touchés le sol mais que la quantité est inférieure à 0.1 mm.

Récapitulatif de la journée
Température [°C] Vent [km/h] Ensoleillement4 [h] Precipitations totale5 [mm] Pression [Hpa]
Min1 Max.2 Moy.3 Max. Min Max.
8.0 22.3 5.8 14.8 0 h 0 min 0 1020.4 1022.8

1 Température minimale relevée entre 18:00 UTC la veille et 18:00 UTC le jour donné.

2 Température maximale relevée entre 06:00 UTC le jour donné et 06:00 UTC le lendemain.

3 Vent moyen de la journée basé sur les relevés horaires.

4 Ensoleillement en heures relevé entre 06:00 UTC la veille et 06:00 UTC le jour donné.

5 Précipitations totales tombées entre 06:00 UTC la jour donné et 06:00 UTC le lendemain.

Graphiques horaires